Time,TemperatureF,DewpointF,PressureIn,WindDirection,WindDirectionDegrees,WindSpeedMPH,WindSpeedGustMPH,Humidity,HourlyPrecipIn,Conditions,Clouds,dailyrainin,SoftwareType,DateUTC
2013-05-21 00:00:00,61.1,61.0,30.19,SW,221,0.0,0.0,98,0.00,,,0.00,weatherlink.com 1.10,2013-05-21 04:00:00,
2013-05-21 00:15:00,61.1,61.0,30.18,SW,222,0.0,0.0,98,0.00,,,0.00,weatherlink.com 1.10,2013-05-21 04:15:00,
2013-05-21 00:30:00,61.1,61.0,30.19,SW,222,0.0,0.0,98,0.00,,,0.00,weatherlink.com 1.10,2013-05-21 04:30:00,
2013-05-21 00:45:00,61.0,61.0,30.19,SW,221,0.0,0.0,98,0.00,,,0.00,weatherlink.com 1.10,2013-05-21 04:45:00,
2013-05-21 01:00:00,61.1,61.0,30.19,SW,222,0.0,0.0,98,0.00,,,0.00,weatherlink.com 1.10,2013-05-21 05:00:00,
2013-05-21 01:15:00,61.1,61.0,30.18,SW,225,0.0,0.0,98,0.00,,,0.00,weatherlink.com 1.10,2013-05-21 05:15:00,
2013-05-21 01:30:00,61.0,61.0,30.18,SW,225,0.0,0.0,98,0.00,,,0.00,weatherlink.com 1.10,2013-05-21 05:30:00,
2013-05-21 01:45:00,60.8,60.0,30.17,SW,225,0.0,0.0,98,0.00,,,0.00,weatherlink.com 1.10,2013-05-21 05:45:00,
2013-05-21 02:00:00,60.4,60.0,30.17,SW,225,0.0,0.0,98,0.00,,,0.00,weatherlink.com 1.10,2013-05-21 06:00:00,
2013-05-21 02:15:00,60.2,60.0,30.17,SW,225,0.0,0.0,98,0.00,,,0.00,weatherlink.com 1.10,2013-05-21 06:15:00,
2013-05-21 02:30:00,59.7,59.0,30.16,SW,225,0.0,0.0,98,0.00,,,0.00,weatherlink.com 1.10,2013-05-21 06:30:00,
2013-05-21 02:45:00,59.7,60.0,30.16,SW,225,0.0,0.0,99,0.00,,,0.00,weatherlink.com 1.10,2013-05-21 06:45:00,
2013-05-21 03:15:00,59.3,59.0,30.16,SW,225,0.0,0.0,98,0.00,,,0.00,weatherlink.com 1.10,2013-05-21 07:15:00,
2013-05-21 03:30:00,59.1,59.0,30.16,SW,225,0.0,1.0,99,0.00,,,0.00,weatherlink.com 1.10,2013-05-21 07:30:00,
2013-05-21 03:45:00,58.7,59.0,30.16,SW,225,0.0,0.0,99,0.00,,,0.00,weatherlink.com 1.10,2013-05-21 07:45:00,
2013-05-21 04:00:00,58.6,58.0,30.16,SW,225,0.0,0.0,99,0.00,,,0.00,weatherlink.com 1.10,2013-05-21 08:00:00,
2013-05-21 04:16:00,58.3,58.0,30.15,SW,225,0.0,0.0,99,0.00,,,0.00,weatherlink.com 1.10,2013-05-21 08:16:00,
2013-05-21 04:31:00,58.5,58.0,30.15,SW,225,0.0,0.0,99,0.00,,,0.00,weatherlink.com 1.10,2013-05-21 08:31:00,
2013-05-21 04:46:00,58.6,58.0,30.15,SW,225,0.0,0.0,99,0.00,,,0.00,weatherlink.com 1.10,2013-05-21 08:46:00,
2013-05-21 05:01:00,58.7,59.0,30.15,SW,225,0.0,0.0,99,0.00,,,0.00,weatherlink.com 1.10,2013-05-21 09:01:00,
2013-05-21 05:18:00,59.1,59.0,30.15,SW,225,0.0,0.0,99,0.00,,,0.00,weatherlink.com 1.10,2013-05-21 09:18:00,
2013-05-21 05:30:00,59.3,59.0,30.16,SW,225,0.0,0.0,99,0.00,,,0.00,weatherlink.com 1.10,2013-05-21 09:30:00,
2013-05-21 05:45:00,59.0,59.0,30.16,SW,225,0.0,0.0,99,0.00,,,0.00,weatherlink.com 1.10,2013-05-21 09:45:00,
2013-05-21 06:00:00,59.0,59.0,30.16,SW,225,0.0,0.0,99,0.00,,,0.00,weatherlink.com 1.10,2013-05-21 10:00:00,
2013-05-21 06:15:00,59.1,59.0,30.17,SW,225,0.0,0.0,99,0.00,,,0.00,weatherlink.com 1.10,2013-05-21 10:15:00,
2013-05-21 06:30:00,58.7,59.0,30.17,SW,225,0.0,0.0,99,0.00,,,0.00,weatherlink.com 1.10,2013-05-21 10:30:00,
2013-05-21 06:45:00,58.7,59.0,30.18,SW,225,0.0,0.0,99,0.00,,,0.00,weatherlink.com 1.10,2013-05-21 10:45:00,
2013-05-21 07:00:00,58.6,58.0,30.18,SW,226,0.0,0.0,99,0.00,,,0.00,weatherlink.com 1.10,2013-05-21 11:00:00,
2013-05-21 07:15:00,58.8,59.0,30.18,SSW,195,0.0,1.0,99,0.00,,,0.00,weatherlink.com 1.10,2013-05-21 11:15:00,
2013-05-21 07:30:00,59.3,59.0,30.18,SSW,195,0.0,1.0,99,0.00,,,0.00,weatherlink.com 1.10,2013-05-21 11:30:00,
2013-05-21 07:45:00,59.5,59.0,30.19,SSW,194,0.0,1.0,99,0.00,,,0.00,weatherlink.com 1.10,2013-05-21 11:45:00,
2013-05-21 08:00:00,59.7,60.0,30.19,South,183,0.0,1.0,99,0.00,,,0.00,weatherlink.com 1.10,2013-05-21 12:00:00,
2013-05-21 08:15:00,59.8,60.0,30.19,ESE,110,0.0,1.0,99,0.00,,,0.00,weatherlink.com 1.10,2013-05-21 12:15:00,
2013-05-21 08:30:00,60.2,60.0,30.19,ESE,111,0.0,0.0,99,0.00,,,0.00,weatherlink.com 1.10,2013-05-21 12:30:00,
2013-05-21 08:45:00,61.2,61.0,30.19,ESE,111,0.0,0.0,99,0.00,,,0.00,weatherlink.com 1.10,2013-05-21 12:45:00,
2013-05-21 09:00:00,61.9,62.0,30.19,NNE,32,0.0,1.0,99,0.00,,,0.00,weatherlink.com 1.10,2013-05-21 13:00:00,
2013-05-21 09:15:00,62.7,63.0,30.20,SE,127,1.0,1.0,99,0.00,,,0.00,weatherlink.com 1.10,2013-05-21 13:15:00,
2013-05-21 09:30:00,64.1,63.0,30.20,ESE,103,0.0,1.0,97,0.00,,,0.00,weatherlink.com 1.10,2013-05-21 13:30:00,
2013-05-21 09:46:00,66.1,65.0,30.20,SW,219,0.0,2.0,95,0.00,,,0.00,weatherlink.com 1.10,2013-05-21 13:46:00,
2013-05-21 10:01:00,67.6,65.0,30.20,NNW,345,0.0,2.0,90,0.00,,,0.00,weatherlink.com 1.10,2013-05-21 14:01:00,
2013-05-21 10:16:00,70.7,66.0,30.20,East,91,0.0,2.0,86,0.00,,,0.00,weatherlink.com 1.10,2013-05-21 14:16:00,
2013-05-21 10:31:00,74.2,70.0,30.20,ESE,122,0.0,3.0,85,0.00,,,0.00,weatherlink.com 1.10,2013-05-21 14:31:00,
2013-05-21 10:46:00,75.6,67.0,30.19,SE,134,2.0,4.0,74,0.00,,,0.00,weatherlink.com 1.10,2013-05-21 14:46:00,
2013-05-21 11:01:00,77.5,69.0,30.20,NE,46,0.0,3.0,76,0.00,,,0.00,weatherlink.com 1.10,2013-05-21 15:01:00,
2013-05-21 11:16:00,78.6,68.0,30.19,West,280,0.0,2.0,70,0.00,,,0.00,weatherlink.com 1.10,2013-05-21 15:16:00,
2013-05-21 11:31:00,78.5,67.0,30.19,NW,309,1.0,7.0,67,0.00,,,0.00,weatherlink.com 1.10,2013-05-21 15:31:00,
2013-05-21 11:46:00,79.7,67.0,30.19,East,80,2.0,3.0,66,0.00,,,0.00,weatherlink.com 1.10,2013-05-21 15:46:00,
2013-05-21 12:01:00,79.4,65.0,30.19,North,354,0.0,5.0,62,0.00,,,0.00,weatherlink.com 1.10,2013-05-21 16:01:00,
2013-05-21 12:16:00,79.6,65.0,30.19,SSE,152,2.0,6.0,61,0.00,,,0.00,weatherlink.com 1.10,2013-05-21 16:16:00,
2013-05-21 12:31:00,80.6,67.0,30.18,SSE,150,4.0,4.0,64,0.00,,,0.00,weatherlink.com 1.10,2013-05-21 16:31:00,
2013-05-21 12:46:00,81.2,65.0,30.18,ESE,108,0.0,4.0,59,0.00,,,0.00,weatherlink.com 1.10,2013-05-21 16:46:00,
2013-05-21 13:01:00,82.6,68.0,30.17,NE,39,0.0,3.0,62,0.00,,,0.00,weatherlink.com 1.10,2013-05-21 17:01:00,
2013-05-21 13:16:00,82.5,64.0,30.16,North,11,2.0,5.0,54,0.00,,,0.00,weatherlink.com 1.10,2013-05-21 17:16:00,
2013-05-21 13:31:00,83.0,64.0,30.16,NNE,16,0.0,3.0,53,0.00,,,0.00,weatherlink.com 1.10,2013-05-21 17:31:00,
2013-05-21 13:47:00,83.3,63.0,30.15,SSE,147,1.0,6.0,51,0.00,,,0.00,weatherlink.com 1.10,2013-05-21 17:47:00,
2013-05-21 14:01:00,83.8,64.0,30.15,SE,139,2.0,2.0,52,0.00,,,0.00,weatherlink.com 1.10,2013-05-21 18:01:00,
2013-05-21 14:16:00,82.8,63.0,30.14,NW,318,1.0,5.0,51,0.00,,,0.00,weatherlink.com 1.10,2013-05-21 18:16:00,
2013-05-21 14:31:00,81.6,63.0,30.14,West,279,0.0,3.0,54,0.00,,,0.00,weatherlink.com 1.10,2013-05-21 18:31:00,
2013-05-21 14:46:00,81.0,64.0,30.13,East,80,0.0,3.0,57,0.00,,,0.00,weatherlink.com 1.10,2013-05-21 18:46:00,
2013-05-21 15:01:00,79.5,67.0,30.14,ENE,72,0.0,5.0,65,0.00,,,0.00,weatherlink.com 1.10,2013-05-21 19:01:00,
2013-05-21 15:16:00,69.0,61.0,30.16,ENE,60,7.0,12.0,75,0.49,,,0.49,weatherlink.com 1.10,2013-05-21 19:16:00,
2013-05-21 15:31:00,64.1,62.0,30.16,ENE,70,0.0,8.0,91,0.72,,,0.72,weatherlink.com 1.10,2013-05-21 19:31:00,
2013-05-21 15:46:00,63.4,62.0,30.14,ESE,118,1.0,3.0,94,0.83,,,0.83,weatherlink.com 1.10,2013-05-21 19:46:00,
2013-05-21 16:01:00,63.7,62.0,30.13,WNW,301,0.0,1.0,95,0.83,,,0.84,weatherlink.com 1.10,2013-05-21 20:01:00,
2013-05-21 16:16:00,64.0,63.0,30.15,WSW,246,0.0,2.0,95,0.29,,,0.84,weatherlink.com 1.10,2013-05-21 20:16:00,
2013-05-21 16:31:00,63.9,62.0,30.15,WNW,284,0.0,1.0,94,0.12,,,0.84,weatherlink.com 1.10,2013-05-21 20:31:00,
2013-05-21 16:46:00,63.7,62.0,30.13,SW,221,0.0,2.0,94,0.01,,,0.84,weatherlink.com 1.10,2013-05-21 20:46:00,
2013-05-21 17:01:00,63.5,62.0,30.13,SW,221,0.0,1.0,96,0.00,,,0.84,weatherlink.com 1.10,2013-05-21 21:01:00,
2013-05-21 17:16:00,63.5,62.0,30.12,North,9,0.0,0.0,96,0.00,,,0.84,weatherlink.com 1.10,2013-05-21 21:16:00,
2013-05-21 17:31:00,63.2,62.0,30.12,North,9,0.0,0.0,97,0.00,,,0.84,weatherlink.com 1.10,2013-05-21 21:31:00,
2013-05-21 17:47:00,63.2,62.0,30.11,North,9,0.0,0.0,97,0.00,,,0.84,weatherlink.com 1.10,2013-05-21 21:47:00,
2013-05-21 18:02:00,63.6,63.0,30.13,SW,236,1.0,1.0,97,0.00,,,0.84,weatherlink.com 1.10,2013-05-21 22:02:00,
2013-05-21 18:17:00,63.8,63.0,30.12,SE,130,0.0,1.0,97,0.00,,,0.84,weatherlink.com 1.10,2013-05-21 22:17:00,
2013-05-21 18:32:00,64.0,63.0,30.12,West,270,0.0,1.0,96,0.00,,,0.84,weatherlink.com 1.10,2013-05-21 22:32:00,
2013-05-21 18:47:00,63.9,63.0,30.12,WSW,252,0.0,1.0,96,0.00,,,0.84,weatherlink.com 1.10,2013-05-21 22:47:00,
2013-05-21 19:02:00,64.2,63.0,30.12,WSW,252,0.0,0.0,96,0.00,,,0.84,weatherlink.com 1.10,2013-05-21 23:02:00,
2013-05-21 19:17:00,64.2,63.0,30.12,East,90,0.0,1.0,96,0.00,,,0.84,weatherlink.com 1.10,2013-05-21 23:17:00,
2013-05-21 19:32:00,63.8,63.0,30.13,ENE,60,0.0,1.0,96,0.00,,,0.84,weatherlink.com 1.10,2013-05-21 23:32:00,
2013-05-21 19:47:00,63.8,63.0,30.14,ENE,63,0.0,0.0,97,0.00,,,0.84,weatherlink.com 1.10,2013-05-21 23:47:00,
2013-05-21 20:02:00,63.5,62.0,30.14,WNW,286,0.0,1.0,96,0.00,,,0.84,weatherlink.com 1.10,2013-05-22 00:02:00,
2013-05-21 20:17:00,63.3,63.0,30.15,WNW,288,0.0,0.0,97,0.00,,,0.84,weatherlink.com 1.10,2013-05-22 00:17:00,
2013-05-21 20:32:00,63.0,62.0,30.14,WNW,288,0.0,0.0,97,0.00,,,0.84,weatherlink.com 1.10,2013-05-22 00:32:00,
2013-05-21 20:47:00,63.0,62.0,30.14,WNW,295,0.0,1.0,97,0.00,,,0.84,weatherlink.com 1.10,2013-05-22 00:47:00,
2013-05-21 21:02:00,63.0,62.0,30.14,WSW,258,0.0,1.0,97,0.00,,,0.84,weatherlink.com 1.10,2013-05-22 01:02:00,
2013-05-21 21:17:00,62.6,62.0,30.14,SSE,163,0.0,1.0,97,0.00,,,0.84,weatherlink.com 1.10,2013-05-22 01:17:00,
2013-05-21 21:32:00,62.4,62.0,30.14,ESE,121,0.0,1.0,97,0.00,,,0.84,weatherlink.com 1.10,2013-05-22 01:32:00,
2013-05-21 21:47:00,62.1,61.0,30.14,ESE,122,0.0,1.0,97,0.00,,,0.84,weatherlink.com 1.10,2013-05-22 01:47:00,
2013-05-21 22:02:00,61.7,61.0,30.14,ESE,122,0.0,0.0,98,0.00,,,0.84,weatherlink.com 1.10,2013-05-22 02:02:00,
2013-05-21 22:17:00,61.4,61.0,30.14,ESE,121,0.0,0.0,98,0.00,,,0.84,weatherlink.com 1.10,2013-05-22 02:17:00,
2013-05-21 22:32:00,61.2,61.0,30.14,ESE,121,0.0,0.0,98,0.00,,,0.84,weatherlink.com 1.10,2013-05-22 02:32:00,
2013-05-21 22:47:00,61.2,61.0,30.13,ESE,122,0.0,0.0,98,0.00,,,0.84,weatherlink.com 1.10,2013-05-22 02:47:00,
2013-05-21 23:02:00,61.4,61.0,30.14,ESE,121,0.0,1.0,98,0.00,,,0.84,weatherlink.com 1.10,2013-05-22 03:02:00,
2013-05-21 23:17:00,61.5,61.0,30.16,NE,51,0.0,1.0,98,0.00,,,0.84,weatherlink.com 1.10,2013-05-22 03:17:00,
2013-05-21 23:32:00,61.4,61.0,30.16,East,84,0.0,1.0,98,0.00,,,0.84,weatherlink.com 1.10,2013-05-22 03:32:00,
2013-05-21 23:47:00,61.7,62.0,30.16,WNW,286,0.0,2.0,99,0.00,,,0.84,weatherlink.com 1.10,2013-05-22 03:47:00,